Time;durP1;ratioP1;P1;durP2;ratioP2;P2;SDS_P1;SDS_P2;PMS_P1;PMS_P2;Temp;Humidity;BMP_temperature;BMP_pressure;BME280_temperature;BME280_humidity;BME280_pressure;Samples;Min_cycle;Max_cycle;Signal;HPM_P1;HPM_P2
2022/04/05 00:01:17;;;;;;;5.05;3.10;;;;;;;4.22;69.78;97987.84;5055421;28;20037;-74
2022/04/05 00:03:43;;;;;;;3.50;3.08;;;;;;;4.18;70.00;97975.81;5020968;28;20132;-75
2022/04/05 00:06:09;;;;;;;4.55;3.13;;;;;;;4.16;69.84;97983.00;5020903;28;20095;-75
2022/04/05 00:08:35;;;;;;;3.88;3.47;;;;;;;4.13;70.20;97971.69;5055321;28;20528;-76
2022/04/05 00:11:01;;;;;;;6.90;3.40;;;;;;;4.21;70.29;97979.03;5037525;28;20044;-76
2022/04/05 00:13:27;;;;;;;4.28;3.15;;;;;;;4.18;70.13;97968.72;5055236;28;20132;-75
2022/04/05 00:15:53;;;;;;;6.82;3.63;;;;;;;4.08;70.92;97967.72;5055234;28;20074;-76
2022/04/05 00:18:19;;;;;;;5.32;3.83;;;;;;;4.10;70.57;97971.94;5054720;28;20047;-77
2022/04/05 00:20:45;;;;;;;4.13;3.42;;;;;;;4.03;70.59;97965.44;5037180;28;20064;-75
2022/04/05 00:23:11;;;;;;;3.92;3.17;;;;;;;4.00;71.13;97970.09;5055148;28;20044;-75
2022/04/05 00:25:37;;;;;;;5.32;3.40;;;;;;;3.94;71.34;97958.19;5036923;28;20037;-75
2022/04/05 00:28:04;;;;;;;3.95;3.35;;;;;;;3.98;71.37;97966.72;5053816;28;20071;-75
2022/04/05 00:30:30;;;;;;;3.60;3.30;;;;;;;3.95;71.15;97951.97;5054803;28;20044;-76
2022/04/05 00:32:56;;;;;;;3.42;3.13;;;;;;;3.92;71.53;97961.91;5053756;28;20501;-75
2022/04/05 00:35:23;;;;;;;4.20;3.65;;;;;;;3.95;71.78;97973.09;5054465;28;20068;-76
2022/04/05 00:37:49;;;;;;;3.75;3.30;;;;;;;4.00;71.63;97970.09;5037315;28;20449;-75
2022/04/05 00:40:15;;;;;;;6.22;3.80;;;;;;;3.96;71.96;97980.06;5053472;28;20106;-74
2022/04/05 00:42:42;;;;;;;3.00;2.70;;;;;;;3.83;72.29;98001.28;5020448;28;20416;-74
2022/04/05 00:45:15;;;;;;;3.53;3.08;;;;;;;3.39;73.15;98008.03;5003678;28;20044;-75
2022/04/05 00:47:46;;;;;;;3.60;3.22;;;;;;;3.15;73.65;98002.69;5020195;28;20576;-74
2022/04/05 00:50:14;;;;;;;3.50;3.20;;;;;;;2.95;74.50;98000.63;5036675;28;20065;-74
2022/04/05 00:52:39;;;;;;;3.60;3.30;;;;;;;2.77;74.71;97988.72;5036928;28;20084;-74
2022/04/05 00:55:06;;;;;;;4.03;3.20;;;;;;;2.63;75.39;97987.03;5036623;28;20068;-74
2022/04/05 00:57:34;;;;;;;3.83;3.42;;;;;;;2.60;75.93;97988.09;5053438;28;20095;-75
2022/04/05 01:00:05;;;;;;;4.00;3.03;;;;;;;2.55;76.32;97998.13;5019972;28;20041;-75
2022/04/05 01:02:36;;;;;;;3.80;3.40;;;;;;;2.47;76.43;97986.41;5020010;28;20051;-74
2022/04/05 01:05:03;;;;;;;4.40;3.60;;;;;;;2.53;76.40;97997.38;5036776;28;20075;-74
2022/04/05 01:07:31;;;;;;;4.28;3.78;;;;;;;2.47;76.70;97991.69;5036316;28;20062;-74
2022/04/05 01:09:58;;;;;;;4.82;3.83;;;;;;;2.50;76.60;97992.31;5036236;28;20041;-74
2022/04/05 01:12:24;;;;;;;4.13;3.72;;;;;;;2.47;77.00;97989.88;5036265;28;20043;-75
2022/04/05 01:14:52;;;;;;;4.93;3.45;;;;;;;2.48;76.73;97999.47;5035894;28;20131;-76
2022/04/05 01:17:19;;;;;;;3.80;3.38;;;;;;;2.51;76.87;98009.81;5054176;28;20063;-74
2022/04/05 01:19:49;;;;;;;4.35;3.25;;;;;;;2.53;76.75;98004.47;5053898;28;20084;-75
2022/04/05 01:22:15;;;;;;;;;;;;;;;2.50;76.97;98005.50;5053147;28;20123;-74
2022/04/05 01:24:40;;;;;;;4.10;3.22;;;;;;;2.40;77.15;98013.19;5035699;28;20379;-75
2022/04/05 01:27:07;;;;;;;3.45;3.15;;;;;;;2.38;77.29;98009.00;5035644;28;20529;-74
2022/04/05 01:29:34;;;;;;;3.38;3.05;;;;;;;2.38;76.92;98009.00;5053347;28;20124;-75
2022/04/05 01:32:06;;;;;;;3.35;2.88;;;;;;;2.43;77.39;98012.16;5051575;28;20178;-74
2022/04/05 01:34:34;;;;;;;3.30;3.00;;;;;;;2.35;77.37;98010.03;5053603;28;20056;-74
2022/04/05 01:37:05;;;;;;;4.43;3.65;;;;;;;2.51;77.09;98027.44;5035715;28;20040;-75
2022/04/05 01:39:34;;;;;;;4.18;3.60;;;;;;;2.50;77.01;98033.69;5051919;28;20041;-75
2022/04/05 01:42:14;;;;;;;3.80;3.42;;;;;;;2.53;76.59;98030.84;5002489;28;20049;-76
2022/04/05 01:44:42;;;;;;;3.60;3.22;;;;;;;2.61;76.61;98037.28;5035513;28;20090;-76
2022/04/05 01:47:18;;;;;;;6.28;3.78;;;;;;;2.65;76.39;98033.47;5019027;28;20637;-76
2022/04/05 01:49:48;;;;;;;5.05;3.95;;;;;;;2.55;76.33;98042.13;5019225;28;20048;-75
2022/04/05 01:52:15;;;;;;;3.85;3.45;;;;;;;2.58;76.52;98047.19;5052215;28;20055;-75
2022/04/05 01:54:41;;;;;;;5.32;4.40;;;;;;;2.59;76.42;98044.44;5053564;28;20041;-76
2022/04/05 01:57:08;;;;;;;4.35;3.95;;;;;;;2.64;76.15;98060.81;5053500;28;20174;-76
2022/04/05 01:59:36;;;;;;;4.45;3.83;;;;;;;2.66;76.10;98055.41;5035364;28;20045;-76
2022/04/05 02:02:08;;;;;;;5.40;4.37;;;;;;;2.60;76.18;98061.13;5035593;28;20051;-74
2022/04/05 02:04:34;;;;;;;4.15;3.53;;;;;;;2.62;76.09;98054.78;5035345;28;20041;-75
2022/04/05 02:07:00;;;;;;;6.75;4.30;;;;;;;2.71;75.72;98063.88;5018682;28;20463;-74
2022/04/05 02:09:26;;;;;;;4.80;4.30;;;;;;;2.70;75.74;98067.44;5052307;28;20041;-76
2022/04/05 02:11:55;;;;;;;4.60;4.05;;;;;;;2.74;75.75;98063.66;5019987;28;20072;-74
2022/04/05 02:14:44;;;;;;;5.15;4.15;;;;;;;2.77;75.45;98062.59;5034845;28;20431;-76
2022/04/05 02:17:16;;;;;;;5.13;4.28;;;;;;;2.78;75.42;98074.84;5019443;28;20044;-76
2022/04/05 02:19:45;;;;;;;4.72;4.22;;;;;;;2.78;75.36;98069.56;5034967;28;20041;-75
2022/04/05 02:22:14;;;;;;;4.50;4.10;;;;;;;2.85;74.72;98078.75;5034949;28;20040;-75
2022/04/05 02:24:40;;;;;;;4.97;4.32;;;;;;;2.89;74.56;98083.69;5001876;28;20036;-75
2022/04/05 02:27:07;;;;;;;5.07;4.47;;;;;;;2.89;74.24;98085.50;5034615;28;20053;-76
2022/04/05 02:29:36;;;;;;;7.00;4.95;;;;;;;2.96;74.47;98076.22;5018413;28;20048;-76
2022/04/05 02:32:08;;;;;;;6.55;5.43;;;;;;;3.04;73.94;98084.44;5019037;28;20574;-74
2022/04/05 02:34:35;;;;;;;11.95;5.63;;;;;;;3.03;73.93;98088.03;5035480;28;20049;-75
2022/04/05 02:37:02;;;;;;;7.22;5.75;;;;;;;3.10;73.64;98096.38;5035402;28;20041;-76
2022/04/05 02:39:28;;;;;;;7.03;5.93;;;;;;;2.96;73.60;98102.59;5034533;28;20491;-76
2022/04/05 02:41:59;;;;;;;6.43;5.68;;;;;;;2.80;73.64;98107.25;5035937;28;20044;-75
2022/04/05 02:44:25;;;;;;;7.18;5.50;;;;;;;2.84;73.95;98124.56;5038761;28;20049;-76
2022/04/05 02:46:57;;;;;;;6.95;5.70;;;;;;;2.92;74.05;98124.88;5055582;28;20040;-76
2022/04/05 02:49:25;;;;;;;7.35;5.78;;;;;;;2.84;73.65;98132.50;5011866;28;20426;-76
2022/04/05 02:51:52;;;;;;;7.38;6.07;;;;;;;2.73;74.01;98141.13;5067162;28;20056;-74
2022/04/05 02:54:26;;;;;;;7.00;5.80;;;;;;;2.75;73.86;98127.84;5035287;28;20036;-76
2022/04/05 02:56:56;;;;;;;9.73;6.43;;;;;;;2.72;74.21;98154.44;5053646;28;20041;-76
2022/04/05 02:59:21;;;;;;;9.35;7.10;;;;;;;2.62;74.22;98155.03;5054446;28;20067;-75
2022/04/05 03:01:50;;;;;;;7.63;5.90;;;;;;;2.66;73.77;98160.94;5031082;28;20135;-74
2022/04/05 03:04:18;;;;;;;9.45;6.32;;;;;;;2.67;73.89;98163.50;5035949;28;20037;-76
2022/04/05 03:06:45;;;;;;;7.28;5.72;;;;;;;2.79;73.73;98167.13;5032826;28;20037;-75
2022/04/05 03:09:12;;;;;;;6.32;5.15;;;;;;;2.56;73.51;98173.09;5047032;28;20036;-75
2022/04/05 03:11:39;;;;;;;6.50;5.05;;;;;;;2.31;73.34;98187.03;5015725;28;20445;-74
2022/04/05 03:14:07;;;;;;;5.53;4.70;;;;;;;2.29;72.99;98180.97;5047127;28;20071;-76
2022/04/05 03:16:37;;;;;;;5.40;4.88;;;;;;;2.16;72.24;98189.69;5048727;28;20044;-74
2022/04/05 03:19:08;;;;;;;4.20;3.80;;;;;;;2.03;70.37;98204.63;5034541;28;20602;-75
2022/04/05 03:21:35;;;;;;;4.65;4.18;;;;;;;2.03;68.54;98194.06;5048215;28;20133;-74
2022/04/05 03:24:01;;;;;;;4.25;3.85;;;;;;;2.21;67.68;98193.81;5031881;28;20502;-75
2022/04/05 03:26:27;;;;;;;3.45;3.13;;;;;;;2.13;66.44;98210.13;5030832;28;20105;-76
2022/04/05 03:28:53;;;;;;;3.50;2.90;;;;;;;2.02;65.89;98200.28;5026161;28;20056;-75
2022/04/05 03:31:19;;;;;;;6.78;3.88;;;;;;;2.09;66.43;98206.84;5055747;28;20045;-74
2022/04/05 03:33:49;;;;;;;4.43;3.90;;;;;;;2.22;65.96;98195.50;5038576;28;20040;-75
2022/04/05 03:36:15;;;;;;;7.97;3.78;;;;;;;2.41;66.47;98206.59;5041480;28;20040;-75
2022/04/05 03:38:42;;;;;;;4.60;3.45;;;;;;;2.39;66.54;98217.22;5057561;28;20074;-76
2022/04/05 03:41:11;;;;;;;3.45;3.15;;;;;;;2.39;66.73;98253.28;5025102;28;20371;-75
2022/04/05 03:43:40;;;;;;;4.63;4.00;;;;;;;2.13;65.08;98255.78;5039304;28;20404;-75
2022/04/05 03:46:07;;;;;;;3.65;3.35;;;;;;;1.73;63.92;98272.38;5024591;28;20479;-75
2022/04/05 03:48:33;;;;;;;3.30;3.00;;;;;;;1.41;64.21;98306.78;5052722;28;20055;-75
2022/04/05 03:51:09;;;;;;;4.78;4.25;;;;;;;1.30;64.13;98288.16;5057410;28;20067;-75
2022/04/05 03:53:37;;;;;;;4.03;3.63;;;;;;;1.59;70.63;98310.97;5040306;28;20051;-85
2022/04/05 03:56:08;;;;;;;4.60;3.75;;;;;;;2.13;67.07;98279.53;5041888;28;20044;-82
2022/04/05 03:58:34;;;;;;;5.10;4.60;;;;;;;1.75;61.14;98320.56;5040750;28;20036;-76
2022/04/05 04:01:00;;;;;;;5.00;4.50;;;;;;;1.49;60.96;98319.50;5057398;28;20037;-75
2022/04/05 04:03:29;;;;;;;;;;;;;;;1.11;60.98;98325.22;5048133;28;20045;-76
2022/04/05 04:05:56;;;;;;;6.70;4.38;;;;;;;1.08;61.57;98336.78;5020739;28;19925;-75
2022/04/05 04:08:23;;;;;;;5.18;4.53;;;;;;;1.23;61.22;98313.13;5040799;28;20052;-75
2022/04/05 04:10:51;;;;;;;5.10;4.60;;;;;;;1.27;61.65;98315.50;5041044;28;20098;-78
2022/04/05 04:13:20;;;;;;;4.57;3.50;;;;;;;1.20;60.52;98330.81;5057309;28;20048;-73
2022/04/05 04:15:48;;;;;;;3.85;3.45;;;;;;;1.11;61.10;98327.84;5043082;28;20090;-79
2022/04/05 04:18:15;;;;;;;4.32;3.50;;;;;;;1.01;60.45;98358.25;5053560;28;20065;-77
2022/04/05 04:20:45;;;;;;;4.22;3.78;;;;;;;0.82;60.24;98387.38;5037733;28;20045;-79
2022/04/05 04:23:13;;;;;;;4.35;3.95;;;;;;;0.83;61.10;98375.94;5037512;28;20056;-76
2022/04/05 04:25:44;;;;;;;6.57;5.00;;;;;;;1.00;61.69;98402.16;5054035;28;20099;-77
2022/04/05 04:28:10;;;;;;;5.57;4.70;;;;;;;0.81;62.10;98412.00;5050900;28;20057;-74
2022/04/05 04:30:38;;;;;;;4.72;4.28;;;;;;;0.90;62.24;98420.25;5048876;28;20059;-77
2022/04/05 04:33:05;;;;;;;5.40;4.90;;;;;;;0.79;63.08;98441.03;5040101;28;20045;-77
2022/04/05 04:35:32;;;;;;;4.90;4.18;;;;;;;0.81;62.59;98427.78;5054167;28;20068;-79
2022/04/05 04:38:01;;;;;;;8.82;4.05;;;;;;;0.81;63.24;98439.16;5052793;28;20049;-78
2022/04/05 04:40:27;;;;;;;;;;;;;;;0.67;63.53;98446.94;5020360;28;20052;-75
2022/04/05 04:42:53;;;;;;;5.07;3.80;;;;;;;0.52;65.04;98469.66;5019754;28;19928;-75
2022/04/05 04:45:19;;;;;;;4.03;3.67;;;;;;;0.54;65.38;98477.47;5054030;28;20049;-77
2022/04/05 04:47:45;;;;;;;3.50;3.20;;;;;;;0.52;66.07;98476.69;5035532;28;20037;-77
2022/04/05 04:50:11;;;;;;;5.03;4.53;;;;;;;0.61;66.19;98477.06;5019658;28;20040;-76
2022/04/05 04:52:38;;;;;;;5.15;4.65;;;;;;;0.59;66.43;98463.13;5052610;28;20526;-77
2022/04/05 04:55:06;;;;;;;5.60;5.05;;;;;;;0.61;66.89;98492.00;5019552;28;20155;-76
2022/04/05 04:57:32;;;;;;;4.47;4.05;;;;;;;0.67;66.13;98505.66;5035967;28;20495;-77
2022/04/05 04:59:58;;;;;;;3.55;3.25;;;;;;;0.78;65.77;98512.13;5053465;28;20110;-78
2022/04/05 05:02:24;;;;;;;5.22;4.72;;;;;;;0.79;65.90;98519.09;5052107;28;20497;-78
2022/04/05 05:04:51;;;;;;;5.68;4.38;;;;;;;1.09;65.43;98520.09;5053697;28;20049;-76
2022/04/05 05:07:17;;;;;;;4.18;3.38;;;;;;;1.31;64.22;98521.50;5053098;28;20431;-75
2022/04/05 05:09:43;;;;;;;5.03;4.15;;;;;;;1.56;63.33;98519.22;5035521;28;20055;-76
2022/04/05 05:12:10;;;;;;;3.92;3.50;;;;;;;1.48;61.83;98534.59;5019185;28;20495;-75
2022/04/05 05:14:39;;;;;;;3.17;2.65;;;;;;;1.28;59.46;98526.94;5053327;28;20045;-76
2022/04/05 05:17:06;;;;;;;4.45;4.05;;;;;;;1.33;59.43;98538.94;5051663;28;20041;-75
2022/04/05 05:19:32;;;;;;;3.60;3.28;;;;;;;1.36;57.63;98536.13;5035487;28;20048;-74
2022/04/05 05:21:58;;;;;;;2.92;2.63;;;;;;;1.19;57.33;98567.78;5052968;28;20082;-75
2022/04/05 05:24:24;;;;;;;3.78;3.30;;;;;;;0.90;58.31;98570.22;5035340;28;20114;-76
2022/04/05 05:26:50;;;;;;;3.38;2.85;;;;;;;1.07;57.30;98535.09;5035196;28;20098;-76
2022/04/05 05:29:17;;;;;;;2.58;2.22;;;;;;;0.95;56.93;98588.41;5053153;28;20516;-75
2022/04/05 05:31:43;;;;;;;3.72;2.70;;;;;;;1.01;57.46;98569.63;5053630;28;20049;-73
2022/04/05 05:34:09;;;;;;;2.65;2.45;;;;;;;1.04;57.59;98577.38;5019301;28;20063;-75
2022/04/05 05:36:34;;;;;;;3.20;2.90;;;;;;;1.09;56.69;98585.88;5035870;28;20485;-75
2022/04/05 05:39:00;;;;;;;3.00;2.70;;;;;;;1.29;56.14;98592.69;5019226;28;20044;-76
2022/04/05 05:41:26;;;;;;;3.10;2.60;;;;;;;1.29;56.07;98603.22;5052686;28;20408;-75
2022/04/05 05:43:52;;;;;;;2.90;2.25;;;;;;;1.38;55.38;98586.06;5035716;28;20127;-77
2022/04/05 05:46:18;;;;;;;4.15;3.00;;;;;;;1.49;54.68;98607.41;5053309;28;20155;-76
2022/04/05 05:48:44;;;;;;;4.90;2.83;;;;;;;1.32;55.06;98623.28;5035499;28;20115;-76
2022/04/05 05:51:10;;;;;;;6.78;3.28;;;;;;;1.57;55.46;98623.63;5018909;28;20041;-76
2022/04/05 05:53:36;;;;;;;3.25;2.95;;;;;;;1.68;54.72;98613.34;5035425;28;20044;-76
2022/04/05 05:56:02;;;;;;;3.67;3.00;;;;;;;1.93;55.14;98615.47;5018982;28;20083;-75
2022/04/05 05:58:28;;;;;;;3.38;3.08;;;;;;;1.95;55.30;98623.28;5019137;28;20566;-74
2022/04/05 06:00:55;;;;;;;3.35;2.95;;;;;;;1.85;56.07;98632.66;5035208;28;20132;-74
2022/04/05 06:03:21;;;;;;;3.65;3.35;;;;;;;1.90;57.04;98646.41;5051918;28;20041;-74
2022/04/05 06:05:47;;;;;;;3.67;3.33;;;;;;;2.10;56.47;98640.88;5035049;28;20410;-75
2022/04/05 06:08:14;;;;;;;6.78;3.72;;;;;;;2.10;55.74;98645.28;5052979;28;20436;-76
2022/04/05 06:10:40;;;;;;;4.00;3.60;;;;;;;2.00;55.62;98652.88;5052927;28;20052;-75
2022/04/05 06:13:06;;;;;;;4.03;3.38;;;;;;;1.88;56.71;98659.69;5035640;28;20068;-75
2022/04/05 06:15:32;;;;;;;4.47;3.90;;;;;;;1.98;56.96;98656.53;5035258;28;20523;-75
2022/04/05 06:17:58;;;;;;;3.55;3.05;;;;;;;1.87;56.70;98667.66;5052388;28;20049;-75
2022/04/05 06:20:26;;;;;;;4.30;3.90;;;;;;;2.03;56.50;98671.16;5001829;28;20040;-75
2022/04/05 06:22:58;;;;;;;4.30;3.88;;;;;;;2.14;56.36;98676.69;5052440;28;20107;-76
2022/04/05 06:25:32;;;;;;;4.07;3.67;;;;;;;2.39;55.64;98693.75;5034107;28;20044;-74
2022/04/05 06:28:02;;;;;;;4.22;3.70;;;;;;;2.73;55.09;98682.09;5018104;28;20602;-74
2022/04/05 06:30:35;;;;;;;4.32;3.67;;;;;;;2.86;54.10;98693.63;5051870;28;20048;-76
2022/04/05 06:33:15;;;;;;;4.90;3.10;;;;;;;2.71;52.93;98691.91;5034766;28;20091;-74
2022/04/05 06:35:45;;;;;;;3.58;3.28;;;;;;;2.47;54.53;98694.16;5052572;28;20052;-75
2022/04/05 06:38:11;;;;;;;3.80;3.47;;;;;;;2.47;54.42;98701.22;5051516;28;20064;-74
2022/04/05 06:40:38;;;;;;;4.85;4.00;;;;;;;2.28;55.05;98693.50;5051607;28;20507;-75
2022/04/05 06:43:04;;;;;;;4.00;3.42;;;;;;;2.16;55.61;98709.06;5052753;28;20099;-74
2022/04/05 06:45:30;;;;;;;4.10;3.70;;;;;;;2.10;55.75;98706.78;5034510;28;20056;-75
2022/04/05 06:47:56;;;;;;;3.50;3.10;;;;;;;2.02;56.28;98714.25;5018194;28;20491;-74
2022/04/05 06:50:24;;;;;;;3.47;3.08;;;;;;;2.13;56.15;98717.16;5018237;28;20037;-74
2022/04/05 06:52:55;;;;;;;3.92;3.30;;;;;;;2.09;56.19;98731.44;5018010;28;20040;-74
2022/04/05 06:55:21;;;;;;;4.30;3.90;;;;;;;2.16;56.36;98724.91;5034779;28;20492;-75
2022/04/05 06:57:47;;;;;;;5.55;4.05;;;;;;;2.34;56.63;98736.22;5018073;28;20037;-74
2022/04/05 07:00:14;;;;;;;4.45;3.72;;;;;;;2.04;56.21;98728.22;5050437;28;20048;-74
2022/04/05 07:02:41;;;;;;;3.53;3.22;;;;;;;2.19;56.96;98743.19;5034068;28;20049;-75
2022/04/05 07:05:09;;;;;;;3.38;3.08;;;;;;;2.12;57.00;98730.44;5034147;28;20495;-76
2022/04/05 07:07:36;;;;;;;4.57;4.18;;;;;;;2.27;57.20;98739.28;5034305;28;20037;-75
2022/04/05 07:10:03;;;;;;;4.47;4.07;;;;;;;2.43;56.79;98740.09;5052251;28;20052;-74
2022/04/05 07:12:31;;;;;;;6.50;4.13;;;;;;;2.53;56.60;98736.03;5052004;28;20518;-75
2022/04/05 07:14:57;;;;;;;4.47;3.38;;;;;;;2.43;56.05;98742.75;5017895;28;20529;-75
2022/04/05 07:17:25;;;;;;;4.43;3.70;;;;;;;2.48;56.52;98734.56;5017837;28;20503;-75
2022/04/05 07:19:52;;;;;;;4.55;4.13;;;;;;;2.51;56.30;98743.16;5034339;28;20063;-75
2022/04/05 07:22:19;;;;;;;4.57;4.18;;;;;;;2.70;56.15;98747.38;5018143;28;20458;-74
2022/04/05 07:24:46;;;;;;;4.82;3.83;;;;;;;2.55;56.78;98752.59;5034290;28;20044;-74
2022/04/05 07:27:12;;;;;;;5.05;4.25;;;;;;;2.48;57.28;98766.22;5050566;28;20045;-75
2022/04/05 07:29:39;;;;;;;3.40;3.10;;;;;;;2.41;57.63;98757.81;5020090;28;20453;-76
2022/04/05 07:32:07;;;;;;;4.60;3.95;;;;;;;2.67;57.00;98758.97;5037730;28;20178;-73
2022/04/05 07:34:33;;;;;;;5.63;4.10;;;;;;;2.86;56.52;98770.19;5021258;28;20056;-75
2022/04/05 07:36:59;;;;;;;4.05;3.67;;;;;;;3.08;55.78;98759.19;5054477;28;20082;-76
2022/04/05 07:39:25;;;;;;;4.38;3.97;;;;;;;3.26;55.76;98765.19;5054602;28;20132;-74
2022/04/05 07:41:52;;;;;;;6.60;3.72;;;;;;;3.52;54.42;98763.63;5037914;28;20045;-74
2022/04/05 07:44:18;;;;;;;7.63;4.32;;;;;;;3.71;53.85;98767.81;5021219;28;20045;-75
2022/04/05 07:46:45;;;;;;;6.07;4.35;;;;;;;3.82;55.24;98775.94;5021191;28;20041;-75
2022/04/05 07:49:12;;;;;;;5.30;4.10;;;;;;;3.73;54.20;98774.72;5004751;28;20044;-75
2022/04/05 07:51:38;;;;;;;4.95;4.20;;;;;;;3.68;54.42;98773.28;5004999;28;20049;-75
2022/04/05 07:54:04;;;;;;;5.35;4.53;;;;;;;3.80;53.91;98778.69;5054289;28;20055;-80
2022/04/05 07:56:30;;;;;;;3.67;2.95;;;;;;;3.82;53.70;98789.16;5005068;28;20033;-75
2022/04/05 07:58:57;;;;;;;4.70;4.15;;;;;;;3.96;54.09;98798.88;5055196;28;20047;-75
2022/04/05 08:01:24;;;;;;;5.55;4.40;;;;;;;4.24;53.53;98787.41;5053555;28;20044;-75
2022/04/05 08:03:51;;;;;;;6.38;4.35;;;;;;;4.52;53.17;98789.19;5037337;28;20532;-75
2022/04/05 08:06:17;;;;;;;9.48;4.72;;;;;;;4.64;52.81;98769.84;5037110;28;20491;-76
2022/04/05 08:08:43;;;;;;;4.13;3.47;;;;;;;4.78;51.98;98782.19;5037357;28;20040;-75
2022/04/05 08:11:09;;;;;;;4.93;4.40;;;;;;;5.32;60.21;98787.44;5055196;28;20090;-77
2022/04/05 08:13:35;;;;;;;4.95;3.85;;;;;;;5.31;53.93;98797.19;5036906;28;20041;-80
2022/04/05 08:16:01;;;;;;;5.38;3.63;;;;;;;6.17;58.96;98801.03;5038253;28;20377;-85
2022/04/05 08:18:27;;;;;;;4.30;3.90;;;;;;;6.67;49.06;98793.94;5021393;28;20079;-75
2022/04/05 08:20:53;;;;;;;5.30;4.80;;;;;;;6.48;48.42;98797.91;5054997;28;20052;-77
2022/04/05 08:23:19;;;;;;;4.82;4.43;;;;;;;6.64;48.56;98788.84;5036974;28;20041;-76
2022/04/05 08:25:45;;;;;;;6.90;3.90;;;;;;;6.34;47.73;98798.03;5037359;28;20376;-77
2022/04/05 08:28:11;;;;;;;12.98;5.32;;;;;;;5.75;48.88;98808.34;5061211;28;20418;-76
2022/04/05 08:30:37;;;;;;;4.85;4.25;;;;;;;5.76;49.13;98802.13;5056186;28;20051;-89
2022/04/05 08:33:03;;;;;;;4.28;3.88;;;;;;;5.81;49.06;98803.47;5039902;28;20045;-77
2022/04/05 08:35:29;;;;;;;5.63;4.55;;;;;;;5.81;49.07;98807.94;5056605;28;20047;-77
2022/04/05 08:37:55;;;;;;;4.25;3.85;;;;;;;5.24;50.06;98843.59;5056123;28;20410;-78
2022/04/05 08:40:23;;;;;;;4.63;4.10;;;;;;;5.20;50.17;98825.34;5022977;28;20048;-77
2022/04/05 08:42:56;;;;;;;4.57;3.70;;;;;;;5.04;50.52;98846.69;5023095;28;20044;-76
2022/04/05 08:45:23;;;;;;;6.00;4.47;;;;;;;4.99;51.38;98817.00;5023030;28;20147;-76
2022/04/05 08:47:52;;;;;;;5.40;3.58;;;;;;;4.90;50.60;98834.34;5056142;28;20071;-76
2022/04/05 08:50:24;;;;;;;4.57;4.18;;;;;;;4.74;51.53;98844.22;5040018;28;20040;-76
2022/04/05 08:52:54;;;;;;;5.63;5.00;;;;;;;4.70;50.45;98850.66;5039769;28;20072;-76
2022/04/05 08:55:20;;;;;;;;;;;;;;;4.70;49.36;98858.59;5039522;28;20523;-76
2022/04/05 08:57:46;;;;;;;6.10;4.75;;;;;;;4.67;49.49;98869.41;5039348;28;19943;-76
2022/04/05 09:00:14;;;;;;;5.47;4.90;;;;;;;5.03;48.06;98864.38;5055875;28;20040;-77
2022/04/05 09:02:56;;;;;;;5.43;4.78;;;;;;;5.13;46.99;98885.00;5056086;28;20048;-76
2022/04/05 09:05:33;;;;;;;3.75;3.42;;;;;;;4.36;47.76;98872.19;5039287;28;20086;-76
2022/04/05 09:08:13;;;;;;;4.18;3.83;;;;;;;4.18;48.57;98886.53;5022629;28;20048;-75
2022/04/05 09:10:40;;;;;;;4.95;4.45;;;;;;;4.56;48.11;98884.16;5019269;28;20083;-75
2022/04/05 09:13:11;;;;;;;5.55;4.55;;;;;;;4.62;47.40;98883.75;5062311;28;20573;-77
2022/04/05 09:15:41;;;;;;;4.90;4.43;;;;;;;4.56;47.76;98893.91;5051559;28;20427;-77
2022/04/05 09:18:08;;;;;;;4.10;3.72;;;;;;;4.49;45.92;98897.88;5003393;28;20049;-77
2022/04/05 09:20:47;;;;;;;5.82;4.13;;;;;;;4.40;46.92;98878.13;5053511;28;20044;-77
2022/04/05 09:23:25;;;;;;;3.90;3.42;;;;;;;4.47;47.14;98884.72;5019211;28;20040;-77
2022/04/05 09:25:56;;;;;;;4.28;3.88;;;;;;;4.20;47.42;98887.28;5018705;28;20041;-75
2022/04/05 09:28:27;;;;;;;4.57;3.97;;;;;;;3.59;49.52;98881.25;5024125;28;20062;-75
2022/04/05 09:30:57;;;;;;;6.13;3.50;;;;;;;3.50;50.41;98881.81;5027743;28;20140;-74
2022/04/05 09:33:23;;;;;;;7.50;4.63;;;;;;;3.69;50.87;98873.63;5028944;28;20534;-76
2022/04/05 09:35:53;;;;;;;8.90;4.63;;;;;;;4.06;49.29;98901.38;5012126;28;20050;-80
2022/04/05 09:38:20;;;;;;;3.97;3.22;;;;;;;4.14;48.50;98893.81;5012169;28;20114;-79
2022/04/05 09:40:52;;;;;;;4.25;3.63;;;;;;;4.18;50.02;98896.28;4979940;28;20042;-78
2022/04/05 09:43:18;;;;;;;4.38;3.97;;;;;;;4.68;48.22;98903.72;5013748;28;20048;-79
2022/04/05 09:45:58;;;;;;;4.53;4.10;;;;;;;5.05;46.81;98896.09;5013683;28;20054;-80
2022/04/05 09:48:30;;;;;;;4.70;4.25;;;;;;;5.21;45.59;98917.13;4996597;28;20034;-80
2022/04/05 09:51:02;;;;;;;6.07;3.97;;;;;;;5.30;46.03;98911.22;4979842;28;20046;-80
2022/04/05 09:53:54;;;;;;;4.00;3.58;;;;;;;4.98;46.01;98938.00;4995826;28;20045;-80
2022/04/05 09:56:25;;;;;;;4.60;3.10;;;;;;;4.69;47.37;98931.88;5014085;28;20500;-82
2022/04/05 09:58:56;;;;;;;3.78;2.50;;;;;;;4.71;47.40;98950.34;5013554;28;20050;-81
2022/04/05 10:01:27;;;;;;;3.67;2.95;;;;;;;4.56;47.51;98945.03;5012705;28;20053;-80
2022/04/05 10:04:11;;;;;;;3.70;3.40;;;;;;;4.54;47.97;98933.69;4998649;28;20046;-80
2022/04/05 10:06:41;;;;;;;10.10;3.95;;;;;;;5.13;47.92;98940.63;5017491;28;20046;-81
2022/04/05 10:09:07;;;;;;;5.18;3.88;;;;;;;5.17;47.03;98936.84;4999393;28;20049;-81
2022/04/05 10:11:35;;;;;;;5.45;3.47;;;;;;;5.09;47.93;98948.75;5015434;28;20096;-81
2022/04/05 10:14:02;;;;;;;5.05;3.88;;;;;;;5.18;46.95;98943.81;5032937;28;20115;-81
2022/04/05 10:16:30;;;;;;;4.00;3.35;;;;;;;5.02;46.13;98950.09;5031776;28;20037;-82
2022/04/05 10:18:59;;;;;;;3.78;3.35;;;;;;;4.99;46.50;98939.69;5032997;28;20522;-81
2022/04/05 10:21:28;;;;;;;3.65;3.28;;;;;;;4.86;46.66;98941.44;5015427;28;20058;-81
2022/04/05 10:23:56;;;;;;;4.15;3.75;;;;;;;4.78;47.76;98935.78;5033143;28;20034;-80
2022/04/05 10:26:44;;;;;;;4.20;3.72;;;;;;;5.19;47.56;98945.50;5032625;28;20045;-80
2022/04/05 10:29:15;;;;;;;4.97;3.67;;;;;;;5.26;46.86;98952.13;5030422;28;20049;-81
2022/04/05 10:31:57;;;;;;;4.60;3.85;;;;;;;5.31;47.36;98950.03;5031383;28;20160;-80
2022/04/05 10:34:30;;;;;;;4.15;3.75;;;;;;;5.62;46.93;98943.56;5031714;28;20524;-80
2022/04/05 10:37:16;;;;;;;4.60;4.03;;;;;;;5.70;46.54;98932.47;5033072;28;20144;-80
2022/04/05 10:39:58;;;;;;;6.20;3.63;;;;;;;5.55;46.57;98953.72;4999320;28;20057;-80
2022/04/05 10:42:33;;;;;;;4.45;3.63;;;;;;;5.66;47.29;98957.47;4998854;28;20500;-82
2022/04/05 10:45:33;;;;;;;4.68;3.60;;;;;;;5.55;46.71;98980.25;5032610;28;20496;-81
2022/04/05 10:48:12;;;;;;;4.18;3.78;;;;;;;5.38;46.88;98966.38;5031157;28;20041;-81
2022/04/05 10:50:43;;;;;;;6.95;3.72;;;;;;;5.53;46.35;98981.31;4998612;28;20119;-79
2022/04/05 10:53:19;;;;;;;4.82;3.38;;;;;;;5.24;46.81;98970.78;5015169;28;20492;-80
2022/04/05 10:56:03;;;;;;;6.63;4.18;;;;;;;5.10;47.00;98969.00;4998609;28;20099;-80
2022/04/05 10:58:40;;;;;;;5.68;3.97;;;;;;;5.16;47.70;98978.38;5015668;28;20124;-81
2022/04/05 11:01:18;;;;;;;2.60;2.40;;;;;;;5.02;47.48;98976.59;4998727;28;20479;-80
2022/04/05 11:04:19;;;;;;;8.98;3.55;;;;;;;5.05;47.48;98970.25;5033857;28;20060;-80
2022/04/05 11:07:05;;;;;;;3.63;3.28;;;;;;;4.89;47.83;98983.63;5018740;28;20045;-79
2022/04/05 11:09:44;;;;;;;4.13;3.40;;;;;;;4.87;48.35;98988.16;5035557;28;20049;-79
2022/04/05 11:12:12;;;;;;;5.25;3.90;;;;;;;4.85;48.92;98996.19;5003724;28;20049;-81
2022/04/05 11:14:42;;;;;;;4.40;3.58;;;;;;;4.89;48.58;98999.50;5005479;28;20041;-81
2022/04/05 11:17:14;;;;;;;3.05;2.72;;;;;;;4.88;47.70;99021.63;5020743;28;20143;-80
2022/04/05 11:19:42;;;;;;;4.13;3.03;;;;;;;4.94;47.10;99029.19;5035469;28;20045;-78
2022/04/05 11:22:20;;;;;;;6.63;3.13;;;;;;;5.13;47.22;99014.81;5036493;28;20037;-80
2022/04/05 11:25:09;;;;;;;4.53;3.15;;;;;;;5.40;46.21;99014.84;5036231;28;20333;-81
2022/04/05 11:27:46;;;;;;;5.18;3.13;;;;;;;5.71;46.18;99022.50;5022064;28;20054;-80
2022/04/05 11:30:25;;;;;;;2.80;2.55;;;;;;;5.40;46.09;99018.34;5025803;28;20406;-80
2022/04/05 11:33:06;;;;;;;;;;;;;;;5.85;46.60;99026.94;5077238;28;20082;-81
2022/04/05 11:35:49;;;;;;;5.60;2.90;;;;;;;5.47;46.44;99022.31;5076133;28;19927;-80
2022/04/05 11:38:17;;;;;;;3.33;2.50;;;;;;;5.84;45.45;99012.81;5041880;28;20147;-80
2022/04/05 11:40:48;;;;;;;3.83;3.17;;;;;;;5.43;46.10;99012.84;5041815;28;20078;-80
2022/04/05 11:43:19;;;;;;;4.22;2.78;;;;;;;5.50;45.68;99019.47;5058074;28;20036;-81
2022/04/05 11:45:46;;;;;;;8.45;3.00;;;;;;;5.70;45.79;99031.44;5041276;28;20047;-79
2022/04/05 11:48:31;;;;;;;3.20;2.22;;;;;;;5.38;46.05;99020.25;5057846;28;20044;-81
2022/04/05 11:51:05;;;;;;;6.18;3.08;;;;;;;5.49;47.33;99023.06;5058145;28;20177;-81
2022/04/05 11:53:31;;;;;;;5.53;3.20;;;;;;;7.21;45.51;99019.41;5024487;28;20040;-79